sensor_id;sensor_type;location;lat;lon;timestamp;P1;durP1;ratioP1;P2;durP2;ratioP2
56455;SDS011;42354;53.218;6.564;2023-04-01T00:00:29;14.50;;;8.60;;
56455;SDS011;42354;53.218;6.564;2023-04-01T00:02:55;13.52;;;8.70;;
56455;SDS011;42354;53.218;6.564;2023-04-01T00:05:21;14.43;;;9.20;;
56455;SDS011;42354;53.218;6.564;2023-04-01T00:07:46;14.63;;;8.52;;
56455;SDS011;42354;53.218;6.564;2023-04-01T00:10:12;15.35;;;9.25;;
56455;SDS011;42354;53.218;6.564;2023-04-01T00:12:38;17.42;;;9.20;;
56455;SDS011;42354;53.218;6.564;2023-04-01T00:15:05;16.02;;;9.43;;
56455;SDS011;42354;53.218;6.564;2023-04-01T00:17:32;15.90;;;9.27;;
56455;SDS011;42354;53.218;6.564;2023-04-01T00:19:59;11.55;;;8.02;;
56455;SDS011;42354;53.218;6.564;2023-04-01T00:22:24;13.80;;;8.70;;
56455;SDS011;42354;53.218;6.564;2023-04-01T00:24:51;16.42;;;9.68;;
56455;SDS011;42354;53.218;6.564;2023-04-01T00:27:17;14.02;;;8.85;;
56455;SDS011;42354;53.218;6.564;2023-04-01T00:29:43;16.35;;;9.90;;
56455;SDS011;42354;53.218;6.564;2023-04-01T00:32:09;16.08;;;9.55;;
56455;SDS011;42354;53.218;6.564;2023-04-01T00:34:35;16.50;;;8.43;;
56455;SDS011;42354;53.218;6.564;2023-04-01T00:37:02;13.48;;;8.45;;
56455;SDS011;42354;53.218;6.564;2023-04-01T00:39:29;15.48;;;8.85;;
56455;SDS011;42354;53.218;6.564;2023-04-01T00:41:54;17.45;;;9.20;;
56455;SDS011;42354;53.218;6.564;2023-04-01T00:44:25;23.08;;;11.07;;
56455;SDS011;42354;53.218;6.564;2023-04-01T00:46:52;20.17;;;10.15;;
56455;SDS011;42354;53.218;6.564;2023-04-01T00:49:18;20.25;;;10.60;;
56455;SDS011;42354;53.218;6.564;2023-04-01T00:51:48;16.67;;;10.05;;
56455;SDS011;42354;53.218;6.564;2023-04-01T00:54:17;17.17;;;10.35;;
56455;SDS011;42354;53.218;6.564;2023-04-01T00:56:47;19.10;;;11.27;;
56455;SDS011;42354;53.218;6.564;2023-04-01T00:59:37;20.63;;;10.93;;
56455;SDS011;42354;53.218;6.564;2023-04-01T01:02:05;22.70;;;11.90;;
56455;SDS011;42354;53.218;6.564;2023-04-01T01:04:34;28.95;;;13.00;;
56455;SDS011;42354;53.218;6.564;2023-04-01T01:07:07;29.15;;;14.88;;
56455;SDS011;42354;53.218;6.564;2023-04-01T01:32:07;27.92;;;13.95;;
56455;SDS011;42354;53.218;6.564;2023-04-01T01:37:10;34.10;;;16.77;;
56455;SDS011;42354;53.218;6.564;2023-04-01T01:39:40;45.33;;;19.40;;
56455;SDS011;42354;53.218;6.564;2023-04-01T01:42:08;36.55;;;16.73;;
56455;SDS011;42354;53.218;6.564;2023-04-01T01:44:38;37.13;;;17.02;;
56455;SDS011;42354;53.218;6.564;2023-04-01T01:47:05;28.88;;;14.70;;
56455;SDS011;42354;53.218;6.564;2023-04-01T01:49:31;25.30;;;13.05;;
56455;SDS011;42354;53.218;6.564;2023-04-01T01:51:58;24.38;;;12.20;;
56455;SDS011;42354;53.218;6.564;2023-04-01T01:54:23;24.35;;;13.20;;
56455;SDS011;42354;53.218;6.564;2023-04-01T01:56:51;27.55;;;13.70;;
56455;SDS011;42354;53.218;6.564;2023-04-01T01:59:20;32.53;;;15.65;;
56455;SDS011;42354;53.218;6.564;2023-04-01T02:01:49;44.80;;;18.50;;
56455;SDS011;42354;53.218;6.564;2023-04-01T02:04:16;28.75;;;15.13;;
56455;SDS011;42354;53.218;6.564;2023-04-01T02:06:53;28.88;;;14.35;;
56455;SDS011;42354;53.218;6.564;2023-04-01T02:09:23;37.40;;;17.20;;
56455;SDS011;42354;53.218;6.564;2023-04-01T02:11:52;46.35;;;20.23;;
56455;SDS011;42354;53.218;6.564;2023-04-01T02:17:12;28.88;;;14.32;;
56455;SDS011;42354;53.218;6.564;2023-04-01T02:19:51;27.33;;;13.40;;
56455;SDS011;42354;53.218;6.564;2023-04-01T02:22:20;29.35;;;13.15;;
56455;SDS011;42354;53.218;6.564;2023-04-01T02:24:49;33.42;;;14.82;;
56455;SDS011;42354;53.218;6.564;2023-04-01T02:27:17;30.42;;;14.25;;
56455;SDS011;42354;53.218;6.564;2023-04-01T02:29:43;32.33;;;15.05;;
56455;SDS011;42354;53.218;6.564;2023-04-01T02:32:08;25.13;;;12.82;;
56455;SDS011;42354;53.218;6.564;2023-04-01T02:34:35;39.17;;;17.55;;
56455;SDS011;42354;53.218;6.564;2023-04-01T02:37:01;34.72;;;15.60;;
56455;SDS011;42354;53.218;6.564;2023-04-01T02:39:26;29.65;;;14.68;;
56455;SDS011;42354;53.218;6.564;2023-04-01T02:41:54;33.47;;;14.10;;
56455;SDS011;42354;53.218;6.564;2023-04-01T02:44:20;32.33;;;13.38;;
56455;SDS011;42354;53.218;6.564;2023-04-01T02:46:45;38.55;;;15.95;;
56455;SDS011;42354;53.218;6.564;2023-04-01T02:49:11;38.38;;;16.85;;
56455;SDS011;42354;53.218;6.564;2023-04-01T02:51:36;33.78;;;14.48;;
56455;SDS011;42354;53.218;6.564;2023-04-01T02:54:03;38.63;;;16.88;;
56455;SDS011;42354;53.218;6.564;2023-04-01T02:56:28;42.45;;;18.55;;
56455;SDS011;42354;53.218;6.564;2023-04-01T02:58:54;27.90;;;14.45;;
56455;SDS011;42354;53.218;6.564;2023-04-01T03:01:20;26.58;;;13.95;;
56455;SDS011;42354;53.218;6.564;2023-04-01T03:03:46;27.70;;;13.77;;
56455;SDS011;42354;53.218;6.564;2023-04-01T03:06:12;25.98;;;13.48;;
56455;SDS011;42354;53.218;6.564;2023-04-01T03:08:39;27.55;;;14.23;;
56455;SDS011;42354;53.218;6.564;2023-04-01T03:11:05;35.58;;;15.52;;
56455;SDS011;42354;53.218;6.564;2023-04-01T03:13:30;31.17;;;15.52;;
56455;SDS011;42354;53.218;6.564;2023-04-01T03:15:56;27.48;;;14.52;;
56455;SDS011;42354;53.218;6.564;2023-04-01T03:18:22;32.60;;;15.38;;
56455;SDS011;42354;53.218;6.564;2023-04-01T03:20:47;28.17;;;14.77;;
56455;SDS011;42354;53.218;6.564;2023-04-01T03:23:13;26.85;;;14.48;;
56455;SDS011;42354;53.218;6.564;2023-04-01T03:25:38;31.70;;;16.20;;
56455;SDS011;42354;53.218;6.564;2023-04-01T03:28:03;31.45;;;16.17;;
56455;SDS011;42354;53.218;6.564;2023-04-01T03:30:29;34.40;;;15.38;;
56455;SDS011;42354;53.218;6.564;2023-04-01T03:32:56;33.00;;;15.63;;
56455;SDS011;42354;53.218;6.564;2023-04-01T03:35:22;31.80;;;16.20;;
56455;SDS011;42354;53.218;6.564;2023-04-01T03:37:47;32.30;;;16.02;;
56455;SDS011;42354;53.218;6.564;2023-04-01T03:40:13;34.42;;;17.23;;
56455;SDS011;42354;53.218;6.564;2023-04-01T03:42:38;42.13;;;18.20;;
56455;SDS011;42354;53.218;6.564;2023-04-01T03:45:04;35.90;;;17.70;;
56455;SDS011;42354;53.218;6.564;2023-04-01T03:47:30;35.25;;;17.30;;
56455;SDS011;42354;53.218;6.564;2023-04-01T03:49:55;34.17;;;17.17;;
56455;SDS011;42354;53.218;6.564;2023-04-01T03:52:21;31.83;;;15.60;;
56455;SDS011;42354;53.218;6.564;2023-04-01T03:54:46;39.78;;;18.40;;
56455;SDS011;42354;53.218;6.564;2023-04-01T03:57:12;30.98;;;16.08;;
56455;SDS011;42354;53.218;6.564;2023-04-01T03:59:39;32.80;;;16.88;;
56455;SDS011;42354;53.218;6.564;2023-04-01T04:02:04;30.40;;;15.25;;
56455;SDS011;42354;53.218;6.564;2023-04-01T04:04:30;32.38;;;16.15;;
56455;SDS011;42354;53.218;6.564;2023-04-01T04:06:55;34.78;;;17.08;;
56455;SDS011;42354;53.218;6.564;2023-04-01T04:09:21;36.05;;;16.38;;
56455;SDS011;42354;53.218;6.564;2023-04-01T04:11:47;31.83;;;15.55;;
56455;SDS011;42354;53.218;6.564;2023-04-01T04:14:13;31.20;;;15.98;;
56455;SDS011;42354;53.218;6.564;2023-04-01T04:16:39;29.75;;;15.02;;
56455;SDS011;42354;53.218;6.564;2023-04-01T04:19:04;32.47;;;15.38;;
56455;SDS011;42354;53.218;6.564;2023-04-01T04:21:30;32.92;;;15.43;;
56455;SDS011;42354;53.218;6.564;2023-04-01T04:23:55;32.97;;;15.20;;
56455;SDS011;42354;53.218;6.564;2023-04-01T04:26:21;32.50;;;16.05;;
56455;SDS011;42354;53.218;6.564;2023-04-01T04:28:48;34.88;;;17.40;;
56455;SDS011;42354;53.218;6.564;2023-04-01T04:31:18;37.75;;;16.92;;
56455;SDS011;42354;53.218;6.564;2023-04-01T04:33:45;38.20;;;16.75;;
56455;SDS011;42354;53.218;6.564;2023-04-01T04:36:10;35.35;;;16.67;;
56455;SDS011;42354;53.218;6.564;2023-04-01T04:38:36;33.80;;;17.33;;
56455;SDS011;42354;53.218;6.564;2023-04-01T04:41:01;33.70;;;17.00;;
56455;SDS011;42354;53.218;6.564;2023-04-01T04:43:27;33.80;;;17.58;;
56455;SDS011;42354;53.218;6.564;2023-04-01T04:45:52;35.22;;;17.13;;
56455;SDS011;42354;53.218;6.564;2023-04-01T04:48:17;31.88;;;17.13;;
56455;SDS011;42354;53.218;6.564;2023-04-01T04:50:48;34.08;;;17.45;;
56455;SDS011;42354;53.218;6.564;2023-04-01T04:53:15;35.13;;;17.17;;
56455;SDS011;42354;53.218;6.564;2023-04-01T04:55:44;36.65;;;17.45;;
56455;SDS011;42354;53.218;6.564;2023-04-01T04:58:14;31.92;;;17.15;;
56455;SDS011;42354;53.218;6.564;2023-04-01T05:00:40;36.65;;;17.90;;
56455;SDS011;42354;53.218;6.564;2023-04-01T05:03:06;39.00;;;18.05;;
56455;SDS011;42354;53.218;6.564;2023-04-01T05:05:32;34.72;;;18.02;;
56455;SDS011;42354;53.218;6.564;2023-04-01T05:07:57;33.50;;;17.67;;
56455;SDS011;42354;53.218;6.564;2023-04-01T05:10:23;35.55;;;17.58;;
56455;SDS011;42354;53.218;6.564;2023-04-01T05:12:48;33.63;;;17.33;;
56455;SDS011;42354;53.218;6.564;2023-04-01T05:15:14;32.65;;;17.73;;
56455;SDS011;42354;53.218;6.564;2023-04-01T05:17:40;40.38;;;18.00;;
56455;SDS011;42354;53.218;6.564;2023-04-01T05:20:05;37.45;;;17.17;;
56455;SDS011;42354;53.218;6.564;2023-04-01T05:22:32;38.60;;;17.73;;
56455;SDS011;42354;53.218;6.564;2023-04-01T05:24:57;37.17;;;16.98;;
56455;SDS011;42354;53.218;6.564;2023-04-01T05:27:23;38.97;;;18.13;;
56455;SDS011;42354;53.218;6.564;2023-04-01T05:29:48;32.38;;;16.58;;
56455;SDS011;42354;53.218;6.564;2023-04-01T05:32:13;38.03;;;18.60;;
56455;SDS011;42354;53.218;6.564;2023-04-01T05:34:39;32.90;;;17.27;;
56455;SDS011;42354;53.218;6.564;2023-04-01T05:37:05;40.47;;;18.23;;
56455;SDS011;42354;53.218;6.564;2023-04-01T05:39:35;34.38;;;17.92;;
56455;SDS011;42354;53.218;6.564;2023-04-01T05:42:01;35.75;;;17.70;;
56455;SDS011;42354;53.218;6.564;2023-04-01T05:44:27;43.35;;;18.25;;
56455;SDS011;42354;53.218;6.564;2023-04-01T05:46:52;32.38;;;15.90;;
56455;SDS011;42354;53.218;6.564;2023-04-01T05:49:18;34.30;;;16.10;;
56455;SDS011;42354;53.218;6.564;2023-04-01T05:51:44;34.25;;;16.38;;
56455;SDS011;42354;53.218;6.564;2023-04-01T05:54:09;32.53;;;15.25;;
56455;SDS011;42354;53.218;6.564;2023-04-01T05:56:35;34.85;;;16.10;;
56455;SDS011;42354;53.218;6.564;2023-04-01T05:59:00;32.35;;;15.25;;
56455;SDS011;42354;53.218;6.564;2023-04-01T06:01:25;32.55;;;15.23;;
56455;SDS011;42354;53.218;6.564;2023-04-01T06:03:51;30.42;;;14.48;;
56455;SDS011;42354;53.218;6.564;2023-04-01T06:06:34;34.22;;;16.05;;
56455;SDS011;42354;53.218;6.564;2023-04-01T06:09:47;32.50;;;16.23;;
56455;SDS011;42354;53.218;6.564;2023-04-01T06:17:41;35.28;;;16.80;;
56455;SDS011;42354;53.218;6.564;2023-04-01T06:25:27;33.85;;;16.70;;
56455;SDS011;42354;53.218;6.564;2023-04-01T06:30:48;32.90;;;16.23;;
56455;SDS011;42354;53.218;6.564;2023-04-01T06:33:44;32.25;;;17.10;;
56455;SDS011;42354;53.218;6.564;2023-04-01T06:39:26;33.15;;;16.50;;
56455;SDS011;42354;53.218;6.564;2023-04-01T06:45:40;29.73;;;16.23;;
56455;SDS011;42354;53.218;6.564;2023-04-01T06:52:50;32.80;;;17.02;;
56455;SDS011;42354;53.218;6.564;2023-04-01T06:55:36;30.77;;;17.00;;
56455;SDS011;42354;53.218;6.564;2023-04-01T06:58:11;31.88;;;17.60;;
56455;SDS011;42354;53.218;6.564;2023-04-01T07:00:52;34.78;;;17.38;;
56455;SDS011;42354;53.218;6.564;2023-04-01T07:03:22;33.75;;;19.17;;
56455;SDS011;42354;53.218;6.564;2023-04-01T07:05:58;37.05;;;19.00;;
56455;SDS011;42354;53.218;6.564;2023-04-01T07:08:28;35.75;;;19.35;;
56455;SDS011;42354;53.218;6.564;2023-04-01T07:10:56;36.05;;;19.13;;
56455;SDS011;42354;53.218;6.564;2023-04-01T07:13:29;33.47;;;18.40;;
56455;SDS011;42354;53.218;6.564;2023-04-01T07:16:04;39.97;;;19.83;;
56455;SDS011;42354;53.218;6.564;2023-04-01T07:23:56;36.45;;;19.05;;
56455;SDS011;42354;53.218;6.564;2023-04-01T07:28:54;33.78;;;18.80;;
56455;SDS011;42354;53.218;6.564;2023-04-01T07:36:35;33.88;;;19.73;;
56455;SDS011;42354;53.218;6.564;2023-04-01T07:42:23;30.73;;;16.58;;
56455;SDS011;42354;53.218;6.564;2023-04-01T07:50:19;29.98;;;16.42;;
56455;SDS011;42354;53.218;6.564;2023-04-01T07:52:55;29.88;;;17.13;;
56455;SDS011;42354;53.218;6.564;2023-04-01T08:03:42;33.42;;;18.42;;
56455;SDS011;42354;53.218;6.564;2023-04-01T08:06:33;33.60;;;19.40;;
56455;SDS011;42354;53.218;6.564;2023-04-01T08:12:25;26.85;;;15.75;;
56455;SDS011;42354;53.218;6.564;2023-04-01T08:23:05;24.33;;;13.77;;
56455;SDS011;42354;53.218;6.564;2023-04-01T08:25:39;22.52;;;13.43;;
56455;SDS011;42354;53.218;6.564;2023-04-01T08:28:32;21.73;;;13.80;;
56455;SDS011;42354;53.218;6.564;2023-04-01T08:31:06;23.35;;;13.82;;
56455;SDS011;42354;53.218;6.564;2023-04-01T08:33:37;22.80;;;14.00;;
56455;SDS011;42354;53.218;6.564;2023-04-01T08:36:12;21.33;;;13.93;;
56455;SDS011;42354;53.218;6.564;2023-04-01T08:38:55;20.67;;;13.57;;
56455;SDS011;42354;53.218;6.564;2023-04-01T08:41:41;22.37;;;13.23;;
56455;SDS011;42354;53.218;6.564;2023-04-01T09:00:32;13.35;;;6.45;;
56455;SDS011;42354;53.218;6.564;2023-04-01T09:24:51;7.22;;;4.03;;
56455;SDS011;42354;53.218;6.564;2023-04-01T09:27:28;5.72;;;3.45;;
56455;SDS011;42354;53.218;6.564;2023-04-01T09:33:21;5.47;;;3.65;;
56455;SDS011;42354;53.218;6.564;2023-04-01T09:38:59;4.13;;;2.70;;
56455;SDS011;42354;53.218;6.564;2023-04-01T09:44:29;4.75;;;2.55;;
56455;SDS011;42354;53.218;6.564;2023-04-01T10:33:33;6.43;;;2.65;;
56455;SDS011;42354;53.218;6.564;2023-04-01T10:50:56;3.08;;;2.00;;
56455;SDS011;42354;53.218;6.564;2023-04-01T11:08:04;4.97;;;2.90;;
56455;SDS011;42354;53.218;6.564;2023-04-01T11:20:07;4.63;;;3.25;;
56455;SDS011;42354;53.218;6.564;2023-04-01T11:27:59;5.65;;;2.45;;
56455;SDS011;42354;53.218;6.564;2023-04-01T11:36:30;5.28;;;2.50;;
56455;SDS011;42354;53.218;6.564;2023-04-01T11:44:37;5.38;;;2.42;;
56455;SDS011;42354;53.218;6.564;2023-04-01T11:49:59;3.13;;;1.77;;
56455;SDS011;42354;53.218;6.564;2023-04-01T11:52:59;5.07;;;2.33;;
56455;SDS011;42354;53.218;6.564;2023-04-01T12:03:51;4.50;;;2.03;;
56455;SDS011;42354;53.218;6.564;2023-04-01T12:09:16;4.22;;;2.20;;
56455;SDS011;42354;53.218;6.564;2023-04-01T12:31:25;4.25;;;1.80;;
56455;SDS011;42354;53.218;6.564;2023-04-01T12:34:18;5.32;;;1.88;;
56455;SDS011;42354;53.218;6.564;2023-04-01T12:37:31;2.75;;;1.67;;
56455;SDS011;42354;53.218;6.564;2023-04-01T12:45:16;2.75;;;1.92;;
56455;SDS011;42354;53.218;6.564;2023-04-01T12:48:04;3.38;;;2.28;;
56455;SDS011;42354;53.218;6.564;2023-04-01T12:57:08;3.40;;;1.50;;
56455;SDS011;42354;53.218;6.564;2023-04-01T13:02:27;6.80;;;3.95;;
56455;SDS011;42354;53.218;6.564;2023-04-01T13:11:07;2.30;;;2.10;;
56455;SDS011;42354;53.218;6.564;2023-04-01T13:16:38;4.45;;;1.80;;
56455;SDS011;42354;53.218;6.564;2023-04-01T13:27:29;2.43;;;1.77;;
56455;SDS011;42354;53.218;6.564;2023-04-01T13:30:11;2.88;;;1.70;;
56455;SDS011;42354;53.218;6.564;2023-04-01T13:43:43;4.28;;;1.52;;
56455;SDS011;42354;53.218;6.564;2023-04-01T13:52:09;2.97;;;1.63;;
56455;SDS011;42354;53.218;6.564;2023-04-01T13:58:24;2.42;;;1.70;;
56455;SDS011;42354;53.218;6.564;2023-04-01T14:06:54;3.90;;;1.35;;
56455;SDS011;42354;53.218;6.564;2023-04-01T14:09:32;1.58;;;1.27;;
56455;SDS011;42354;53.218;6.564;2023-04-01T14:45:42;4.43;;;1.40;;
56455;SDS011;42354;53.218;6.564;2023-04-01T14:51:02;6.72;;;1.38;;
56455;SDS011;42354;53.218;6.564;2023-04-01T14:53:36;3.97;;;1.73;;
56455;SDS011;42354;53.218;6.564;2023-04-01T14:56:10;2.88;;;1.30;;
56455;SDS011;42354;53.218;6.564;2023-04-01T14:58:43;4.45;;;1.77;;
56455;SDS011;42354;53.218;6.564;2023-04-01T15:01:25;4.60;;;1.70;;
56455;SDS011;42354;53.218;6.564;2023-04-01T15:04:43;2.55;;;2.05;;
56455;SDS011;42354;53.218;6.564;2023-04-01T15:07:11;2.55;;;1.90;;
56455;SDS011;42354;53.218;6.564;2023-04-01T15:10:28;6.15;;;2.40;;
56455;SDS011;42354;53.218;6.564;2023-04-01T15:12:51;3.05;;;1.73;;
56455;SDS011;42354;53.218;6.564;2023-04-01T15:26:52;5.00;;;2.50;;
56455;SDS011;42354;53.218;6.564;2023-04-01T15:37:22;5.60;;;3.08;;
56455;SDS011;42354;53.218;6.564;2023-04-01T15:40:18;5.65;;;3.03;;
56455;SDS011;42354;53.218;6.564;2023-04-01T15:43:18;7.32;;;3.10;;
56455;SDS011;42354;53.218;6.564;2023-04-01T15:46:14;7.28;;;3.35;;
56455;SDS011;42354;53.218;6.564;2023-04-01T15:52:22;5.28;;;3.25;;
56455;SDS011;42354;53.218;6.564;2023-04-01T15:55:20;8.23;;;4.43;;
56455;SDS011;42354;53.218;6.564;2023-04-01T16:01:14;10.05;;;4.32;;
56455;SDS011;42354;53.218;6.564;2023-04-01T16:12:18;10.35;;;4.55;;
56455;SDS011;42354;53.218;6.564;2023-04-01T16:27:00;9.60;;;4.45;;
56455;SDS011;42354;53.218;6.564;2023-04-01T16:28:57;8.73;;;4.82;;
56455;SDS011;42354;53.218;6.564;2023-04-01T16:31:50;9.75;;;4.90;;
56455;SDS011;42354;53.218;6.564;2023-04-01T16:34:55;14.85;;;5.55;;
56455;SDS011;42354;53.218;6.564;2023-04-01T16:43:10;12.57;;;5.72;;
56455;SDS011;42354;53.218;6.564;2023-04-01T16:45:56;12.25;;;5.40;;
56455;SDS011;42354;53.218;6.564;2023-04-01T16:48:48;12.20;;;5.60;;
56455;SDS011;42354;53.218;6.564;2023-04-01T17:02:35;12.82;;;5.38;;
56455;SDS011;42354;53.218;6.564;2023-04-01T17:05:09;11.85;;;4.78;;
56455;SDS011;42354;53.218;6.564;2023-04-01T17:13:26;12.50;;;5.40;;
56455;SDS011;42354;53.218;6.564;2023-04-01T17:15:53;13.18;;;5.63;;
56455;SDS011;42354;53.218;6.564;2023-04-01T17:24:20;9.55;;;5.75;;
56455;SDS011;42354;53.218;6.564;2023-04-01T17:26:58;10.98;;;5.38;;
56455;SDS011;42354;53.218;6.564;2023-04-01T17:32:46;8.35;;;4.57;;
56455;SDS011;42354;53.218;6.564;2023-04-01T17:35:49;10.35;;;5.25;;
56455;SDS011;42354;53.218;6.564;2023-04-01T17:49:30;12.60;;;5.30;;
56455;SDS011;42354;53.218;6.564;2023-04-01T17:52:37;13.63;;;5.93;;
56455;SDS011;42354;53.218;6.564;2023-04-01T17:58:01;13.85;;;6.28;;
56455;SDS011;42354;53.218;6.564;2023-04-01T18:00:51;17.42;;;6.80;;
56455;SDS011;42354;53.218;6.564;2023-04-01T18:11:55;13.10;;;5.82;;
56455;SDS011;42354;53.218;6.564;2023-04-01T18:17:48;14.68;;;6.25;;
56455;SDS011;42354;53.218;6.564;2023-04-01T18:25:55;13.32;;;5.68;;
56455;SDS011;42354;53.218;6.564;2023-04-01T18:28:36;15.77;;;6.88;;
56455;SDS011;42354;53.218;6.564;2023-04-01T18:31:24;19.50;;;6.18;;
56455;SDS011;42354;53.218;6.564;2023-04-01T18:34:07;16.52;;;6.20;;
56455;SDS011;42354;53.218;6.564;2023-04-01T18:37:02;17.23;;;7.07;;
56455;SDS011;42354;53.218;6.564;2023-04-01T18:42:46;13.07;;;6.50;;
56455;SDS011;42354;53.218;6.564;2023-04-01T18:51:38;15.70;;;6.47;;
56455;SDS011;42354;53.218;6.564;2023-04-01T18:54:12;12.40;;;6.35;;
56455;SDS011;42354;53.218;6.564;2023-04-01T18:56:47;12.15;;;5.90;;
56455;SDS011;42354;53.218;6.564;2023-04-01T18:59:26;14.48;;;6.28;;
56455;SDS011;42354;53.218;6.564;2023-04-01T19:05:00;14.57;;;6.25;;
56455;SDS011;42354;53.218;6.564;2023-04-01T19:07:49;12.80;;;5.82;;
56455;SDS011;42354;53.218;6.564;2023-04-01T19:27:48;17.38;;;7.20;;
56455;SDS011;42354;53.218;6.564;2023-04-01T19:33:05;15.10;;;6.40;;
56455;SDS011;42354;53.218;6.564;2023-04-01T19:35:46;15.27;;;6.80;;
56455;SDS011;42354;53.218;6.564;2023-04-01T19:43:49;15.20;;;6.40;;
56455;SDS011;42354;53.218;6.564;2023-04-01T20:02:53;15.00;;;7.00;;
56455;SDS011;42354;53.218;6.564;2023-04-01T20:16:17;16.00;;;5.90;;
56455;SDS011;42354;53.218;6.564;2023-04-01T20:18:48;11.82;;;5.40;;
56455;SDS011;42354;53.218;6.564;2023-04-01T20:21:21;17.10;;;6.45;;
56455;SDS011;42354;53.218;6.564;2023-04-01T20:26:24;13.63;;;5.38;;
56455;SDS011;42354;53.218;6.564;2023-04-01T20:31:31;11.45;;;4.80;;
56455;SDS011;42354;53.218;6.564;2023-04-01T20:39:47;15.23;;;5.40;;
56455;SDS011;42354;53.218;6.564;2023-04-01T20:50:51;13.07;;;5.45;;
56455;SDS011;42354;53.218;6.564;2023-04-01T20:56:17;12.65;;;5.25;;
56455;SDS011;42354;53.218;6.564;2023-04-01T21:12:56;10.73;;;4.40;;
56455;SDS011;42354;53.218;6.564;2023-04-01T21:15:32;10.25;;;4.68;;
56455;SDS011;42354;53.218;6.564;2023-04-01T21:23:38;13.88;;;4.85;;
56455;SDS011;42354;53.218;6.564;2023-04-01T21:40:00;13.13;;;4.68;;
56455;SDS011;42354;53.218;6.564;2023-04-01T22:03:03;12.52;;;5.55;;
56455;SDS011;42354;53.218;6.564;2023-04-01T22:05:32;10.30;;;5.10;;
56455;SDS011;42354;53.218;6.564;2023-04-01T22:13:36;11.88;;;4.47;;
56455;SDS011;42354;53.218;6.564;2023-04-01T22:27:21;9.88;;;4.32;;
56455;SDS011;42354;53.218;6.564;2023-04-01T22:32:27;10.30;;;4.07;;
56455;SDS011;42354;53.218;6.564;2023-04-01T22:35:07;9.25;;;3.47;;
56455;SDS011;42354;53.218;6.564;2023-04-01T22:37:38;13.88;;;4.05;;
56455;SDS011;42354;53.218;6.564;2023-04-01T22:43:07;9.60;;;3.78;;
56455;SDS011;42354;53.218;6.564;2023-04-01T22:45:57;11.32;;;3.67;;
56455;SDS011;42354;53.218;6.564;2023-04-01T22:48:46;8.45;;;3.15;;
56455;SDS011;42354;53.218;6.564;2023-04-01T22:51:21;11.80;;;3.72;;
56455;SDS011;42354;53.218;6.564;2023-04-01T22:56:28;9.75;;;3.88;;
56455;SDS011;42354;53.218;6.564;2023-04-01T23:01:30;10.75;;;4.13;;
56455;SDS011;42354;53.218;6.564;2023-04-01T23:04:03;9.10;;;3.20;;
56455;SDS011;42354;53.218;6.564;2023-04-01T23:06:32;8.02;;;3.40;;
56455;SDS011;42354;53.218;6.564;2023-04-01T23:17:15;7.10;;;3.53;;
56455;SDS011;42354;53.218;6.564;2023-04-01T23:20:10;19.33;;;6.20;;
56455;SDS011;42354;53.218;6.564;2023-04-01T23:22:49;9.68;;;3.50;;
56455;SDS011;42354;53.218;6.564;2023-04-01T23:27:48;7.75;;;3.25;;
56455;SDS011;42354;53.218;6.564;2023-04-01T23:35:51;13.95;;;4.10;;
56455;SDS011;42354;53.218;6.564;2023-04-01T23:38:18;12.15;;;3.92;;
56455;SDS011;42354;53.218;6.564;2023-04-01T23:40:49;9.35;;;3.83;;
56455;SDS011;42354;53.218;6.564;2023-04-01T23:43:26;12.45;;;3.97;;
56455;SDS011;42354;53.218;6.564;2023-04-01T23:45:56;11.88;;;3.80;;
56455;SDS011;42354;53.218;6.564;2023-04-01T23:48:30;11.65;;;3.63;;
56455;SDS011;42354;53.218;6.564;2023-04-01T23:51:00;9.70;;;3.42;;
56455;SDS011;42354;53.218;6.564;2023-04-01T23:53:28;9.20;;;3.10;;
56455;SDS011;42354;53.218;6.564;2023-04-01T23:55:55;15.18;;;5.32;;
56455;SDS011;42354;53.218;6.564;2023-04-01T23:58:54;15.15;;;3.40;;
